sensor_id;sensor_type;location;lat;lon;timestamp;pressure;altitude;pressure_sealevel;temperature;humidity
50852;BME280;43953;45.508;-122.806;2023-03-21T00:00:09;100145.56;;;13.28;58.46
50852;BME280;43953;45.508;-122.806;2023-03-21T00:00:41;100149.94;;;13.29;58.40
50852;BME280;43953;45.508;-122.806;2023-03-21T00:01:13;100145.06;;;13.31;58.35
50852;BME280;43953;45.508;-122.806;2023-03-21T00:01:49;100146.75;;;13.32;58.33
50852;BME280;43953;45.508;-122.806;2023-03-21T00:02:22;100149.19;;;13.33;58.29
50852;BME280;43953;45.508;-122.806;2023-03-21T00:02:55;100151.66;;;13.35;58.39
50852;BME280;43953;45.508;-122.806;2023-03-21T00:03:26;100146.84;;;13.37;58.19
50852;BME280;43953;45.508;-122.806;2023-03-21T00:03:58;100151.19;;;13.38;58.10
50852;BME280;43953;45.508;-122.806;2023-03-21T00:04:30;100152.81;;;13.39;58.06
50852;BME280;43953;45.508;-122.806;2023-03-21T00:05:03;100147.19;;;13.40;58.17
50852;BME280;43953;45.508;-122.806;2023-03-21T00:05:41;100144.47;;;13.40;58.02
50852;BME280;43953;45.508;-122.806;2023-03-21T00:06:13;100151.78;;;13.40;58.05
50852;BME280;43953;45.508;-122.806;2023-03-21T00:06:45;100148.00;;;13.41;58.20
50852;BME280;43953;45.508;-122.806;2023-03-21T00:07:17;100142.59;;;13.41;57.84
50852;BME280;43953;45.508;-122.806;2023-03-21T00:07:48;100153.16;;;13.42;57.88
50852;BME280;43953;45.508;-122.806;2023-03-21T00:08:22;100146.69;;;13.43;58.08
50852;BME280;43953;45.508;-122.806;2023-03-21T00:08:55;100149.16;;;13.45;57.80
50852;BME280;43953;45.508;-122.806;2023-03-21T00:09:27;100146.44;;;13.45;57.81
50852;BME280;43953;45.508;-122.806;2023-03-21T00:09:58;100146.44;;;13.45;57.95
50852;BME280;43953;45.508;-122.806;2023-03-21T00:10:30;100144.31;;;13.47;57.63
50852;BME280;43953;45.508;-122.806;2023-03-21T00:11:04;100149.72;;;13.47;57.75
50852;BME280;43953;45.508;-122.806;2023-03-21T00:11:36;100152.44;;;13.47;57.74
50852;BME280;43953;45.508;-122.806;2023-03-21T00:12:07;100152.09;;;13.43;57.37
50852;BME280;43953;45.508;-122.806;2023-03-21T00:12:41;100143.66;;;13.40;57.50
50852;BME280;43953;45.508;-122.806;2023-03-21T00:13:14;100145.78;;;13.38;57.64
50852;BME280;43953;45.508;-122.806;2023-03-21T00:13:46;100148.03;;;13.29;57.59
50852;BME280;43953;45.508;-122.806;2023-03-21T00:14:17;100148.16;;;13.23;58.03
50852;BME280;43953;45.508;-122.806;2023-03-21T00:14:50;100150.25;;;13.20;57.98
50852;BME280;43953;45.508;-122.806;2023-03-21T00:15:25;100150.75;;;13.17;58.06
50852;BME280;43953;45.508;-122.806;2023-03-21T00:16:11;100143.44;;;13.18;58.43
50852;BME280;43953;45.508;-122.806;2023-03-21T00:16:47;100147.56;;;13.20;58.63
50852;BME280;43953;45.508;-122.806;2023-03-21T00:17:23;100151.09;;;13.21;58.41
50852;BME280;43953;45.508;-122.806;2023-03-21T00:17:56;100154.13;;;13.25;58.36
50852;BME280;43953;45.508;-122.806;2023-03-21T00:18:46;100150.59;;;13.24;58.32
50852;BME280;43953;45.508;-122.806;2023-03-21T00:19:19;100142.28;;;13.26;58.54
50852;BME280;43953;45.508;-122.806;2023-03-21T00:19:56;100144.75;;;13.27;58.46
50852;BME280;43953;45.508;-122.806;2023-03-21T00:20:31;100148.84;;;13.30;58.50
50852;BME280;43953;45.508;-122.806;2023-03-21T00:21:11;100145.06;;;13.31;58.51
50852;BME280;43953;45.508;-122.806;2023-03-21T00:21:43;100150.00;;;13.34;58.23
50852;BME280;43953;45.508;-122.806;2023-03-21T00:22:16;100145.66;;;13.33;58.37
50852;BME280;43953;45.508;-122.806;2023-03-21T00:22:48;100139.66;;;13.31;58.51
50852;BME280;43953;45.508;-122.806;2023-03-21T00:23:20;100149.66;;;13.30;58.45
50852;BME280;43953;45.508;-122.806;2023-03-21T00:23:51;100149.66;;;13.30;58.37
50852;BME280;43953;45.508;-122.806;2023-03-21T00:24:23;100148.25;;;13.28;58.49
50852;BME280;43953;45.508;-122.806;2023-03-21T00:24:55;100150.41;;;13.26;58.28
50852;BME280;43953;45.508;-122.806;2023-03-21T00:25:27;100148.53;;;13.26;58.77
50852;BME280;43953;45.508;-122.806;2023-03-21T00:25:59;100144.75;;;13.27;58.58
50852;BME280;43953;45.508;-122.806;2023-03-21T00:26:31;100143.69;;;13.28;58.83
50852;BME280;43953;45.508;-122.806;2023-03-21T00:27:03;100150.47;;;13.31;58.87
50852;BME280;43953;45.508;-122.806;2023-03-21T00:27:35;100146.75;;;13.32;58.57
50852;BME280;43953;45.508;-122.806;2023-03-21T00:28:07;100149.44;;;13.32;58.75
50852;BME280;43953;45.508;-122.806;2023-03-21T00:28:40;100150.47;;;13.31;58.80
50852;BME280;43953;45.508;-122.806;2023-03-21T00:29:12;100152.38;;;13.30;58.62
50852;BME280;43953;45.508;-122.806;2023-03-21T00:29:44;100142.84;;;13.28;58.54
50852;BME280;43953;45.508;-122.806;2023-03-21T00:30:16;100147.09;;;13.24;58.73
50852;BME280;43953;45.508;-122.806;2023-03-21T00:30:48;100147.56;;;13.20;58.70
50852;BME280;43953;45.508;-122.806;2023-03-21T00:31:20;100140.53;;;13.19;58.76
50852;BME280;43953;45.508;-122.806;2023-03-21T00:31:52;100145.94;;;13.19;59.06
50852;BME280;43953;45.508;-122.806;2023-03-21T00:32:23;100147.78;;;13.19;58.96
50852;BME280;43953;45.508;-122.806;2023-03-21T00:32:55;100150.75;;;13.17;59.24
50852;BME280;43953;45.508;-122.806;2023-03-21T00:33:27;100148.03;;;13.17;59.03
50852;BME280;43953;45.508;-122.806;2023-03-21T00:34:00;100146.97;;;13.18;59.14
50852;BME280;43953;45.508;-122.806;2023-03-21T00:34:32;100146.97;;;13.18;59.11
50852;BME280;43953;45.508;-122.806;2023-03-21T00:35:09;100152.16;;;13.20;59.41
50852;BME280;43953;45.508;-122.806;2023-03-21T00:35:41;100148.16;;;13.23;59.09
50852;BME280;43953;45.508;-122.806;2023-03-21T00:36:14;100153.31;;;13.24;59.38
50852;BME280;43953;45.508;-122.806;2023-03-21T00:36:46;100147.72;;;13.26;59.19
50852;BME280;43953;45.508;-122.806;2023-03-21T00:37:18;100145.81;;;13.26;58.94
50852;BME280;43953;45.508;-122.806;2023-03-21T00:37:50;100150.97;;;13.28;58.97
50852;BME280;43953;45.508;-122.806;2023-03-21T00:38:22;100150.97;;;13.28;58.78
50852;BME280;43953;45.508;-122.806;2023-03-21T00:38:54;100150.16;;;13.27;58.89
50852;BME280;43953;45.508;-122.806;2023-03-21T00:39:26;100144.19;;;13.25;58.91
50852;BME280;43953;45.508;-122.806;2023-03-21T00:39:58;100144.38;;;13.24;58.97
50852;BME280;43953;45.508;-122.806;2023-03-21T00:40:29;100150.84;;;13.23;59.08
50852;BME280;43953;45.508;-122.806;2023-03-21T00:41:05;100141.91;;;13.22;59.13
50852;BME280;43953;45.508;-122.806;2023-03-21T00:41:37;100149.19;;;13.21;59.00
50852;BME280;43953;45.508;-122.806;2023-03-21T00:42:10;100143.78;;;13.21;59.04
50852;BME280;43953;45.508;-122.806;2023-03-21T00:42:41;100148.16;;;13.23;59.30
50852;BME280;43953;45.508;-122.806;2023-03-21T00:43:13;100144.38;;;13.24;59.15
50852;BME280;43953;45.508;-122.806;2023-03-21T00:43:47;100143.56;;;13.23;59.13
50852;BME280;43953;45.508;-122.806;2023-03-21T00:44:19;100149.78;;;13.24;58.92
50852;BME280;43953;45.508;-122.806;2023-03-21T00:44:51;100146.00;;;13.25;58.70
50852;BME280;43953;45.508;-122.806;2023-03-21T00:45:23;100145.00;;;13.26;59.35
50852;BME280;43953;45.508;-122.806;2023-03-21T00:45:56;100149.94;;;13.29;58.85
50852;BME280;43953;45.508;-122.806;2023-03-21T00:46:28;100138.53;;;13.27;59.00
50852;BME280;43953;45.508;-122.806;2023-03-21T00:47:00;100150.16;;;13.27;58.64
50852;BME280;43953;45.508;-122.806;2023-03-21T00:47:33;100152.03;;;13.27;58.88
50852;BME280;43953;45.508;-122.806;2023-03-21T00:48:05;100145.56;;;13.28;58.68
50852;BME280;43953;45.508;-122.806;2023-03-21T00:48:36;100154.53;;;13.28;58.68
50852;BME280;43953;45.508;-122.806;2023-03-21T00:49:08;100145.56;;;13.28;58.80
50852;BME280;43953;45.508;-122.806;2023-03-21T00:49:40;100146.41;;;13.28;58.97
50852;BME280;43953;45.508;-122.806;2023-03-21T00:50:12;100143.44;;;13.30;59.05
50852;BME280;43953;45.508;-122.806;2023-03-21T00:50:44;100147.22;;;13.29;58.85
50852;BME280;43953;45.508;-122.806;2023-03-21T00:51:20;100152.38;;;13.30;59.09
50852;BME280;43953;45.508;-122.806;2023-03-21T00:51:56;100146.97;;;13.30;58.90
50852;BME280;43953;45.508;-122.806;2023-03-21T00:52:28;100135.34;;;13.30;58.82
50852;BME280;43953;45.508;-122.806;2023-03-21T00:52:59;100148.63;;;13.31;58.81
50852;BME280;43953;45.508;-122.806;2023-03-21T00:53:31;100143.44;;;13.30;58.79
50852;BME280;43953;45.508;-122.806;2023-03-21T00:54:03;100144.75;;;13.27;59.04
50852;BME280;43953;45.508;-122.806;2023-03-21T00:54:36;100144.75;;;13.27;59.20
50852;BME280;43953;45.508;-122.806;2023-03-21T00:55:13;100153.19;;;13.19;58.95
50852;BME280;43953;45.508;-122.806;2023-03-21T00:55:45;100148.41;;;13.09;59.45
50852;BME280;43953;45.508;-122.806;2023-03-21T00:56:18;100149.72;;;13.07;59.10
50852;BME280;43953;45.508;-122.806;2023-03-21T00:56:49;100151.00;;;13.04;59.29
50852;BME280;43953;45.508;-122.806;2023-03-21T00:57:21;100150.44;;;13.02;59.38
50852;BME280;43953;45.508;-122.806;2023-03-21T00:57:53;100143.84;;;12.98;59.48
50852;BME280;43953;45.508;-122.806;2023-03-21T00:58:24;100151.28;;;12.91;59.50
50852;BME280;43953;45.508;-122.806;2023-03-21T00:58:56;100150.00;;;12.82;60.10
50852;BME280;43953;45.508;-122.806;2023-03-21T00:59:28;100147.78;;;12.79;60.09
50852;BME280;43953;45.508;-122.806;2023-03-21T01:00:00;100150.22;;;12.80;60.11
50852;BME280;43953;45.508;-122.806;2023-03-21T01:00:32;100154.81;;;12.80;60.33
50852;BME280;43953;45.508;-122.806;2023-03-21T01:01:07;100149.41;;;12.80;60.12
50852;BME280;43953;45.508;-122.806;2023-03-21T01:01:39;100147.53;;;12.80;60.20
50852;BME280;43953;45.508;-122.806;2023-03-21T01:02:11;100147.31;;;12.82;60.17
50852;BME280;43953;45.508;-122.806;2023-03-21T01:02:44;100147.06;;;12.83;60.25
50852;BME280;43953;45.508;-122.806;2023-03-21T01:03:29;100148.72;;;12.84;60.07
50852;BME280;43953;45.508;-122.806;2023-03-21T01:04:01;100148.94;;;12.83;60.28
50852;BME280;43953;45.508;-122.806;2023-03-21T01:04:40;100144.59;;;12.82;59.82
50852;BME280;43953;45.508;-122.806;2023-03-21T01:05:12;100143.53;;;12.83;59.95
50852;BME280;43953;45.508;-122.806;2023-03-21T01:06:04;100147.31;;;12.82;60.03
50852;BME280;43953;45.508;-122.806;2023-03-21T01:06:37;100146.84;;;12.85;60.12
50852;BME280;43953;45.508;-122.806;2023-03-21T01:07:11;100149.06;;;12.88;60.30
50852;BME280;43953;45.508;-122.806;2023-03-21T01:07:43;100145.06;;;12.90;60.39
50852;BME280;43953;45.508;-122.806;2023-03-21T01:08:17;100145.63;;;12.92;59.93
50852;BME280;43953;45.508;-122.806;2023-03-21T01:08:49;100149.72;;;12.95;60.09
50852;BME280;43953;45.508;-122.806;2023-03-21T01:09:23;100151.16;;;12.97;60.00
50852;BME280;43953;45.508;-122.806;2023-03-21T01:09:55;100150.91;;;12.99;60.29
50852;BME280;43953;45.508;-122.806;2023-03-21T01:10:27;100154.19;;;13.01;59.91
50852;BME280;43953;45.508;-122.806;2023-03-21T01:11:05;100149.38;;;13.03;60.04
50852;BME280;43953;45.508;-122.806;2023-03-21T01:11:37;100152.09;;;12.91;59.64
50852;BME280;43953;45.508;-122.806;2023-03-21T01:12:09;100149.06;;;12.88;59.94
50852;BME280;43953;45.508;-122.806;2023-03-21T01:12:40;100148.25;;;12.87;59.74
50852;BME280;43953;45.508;-122.806;2023-03-21T01:13:14;100150.13;;;12.87;60.01
50852;BME280;43953;45.508;-122.806;2023-03-21T01:13:46;100144.94;;;12.85;59.82
50852;BME280;43953;45.508;-122.806;2023-03-21T01:14:19;100149.28;;;12.86;60.18
50852;BME280;43953;45.508;-122.806;2023-03-21T01:14:52;100144.25;;;12.90;60.01
50852;BME280;43953;45.508;-122.806;2023-03-21T01:15:24;100146.69;;;12.91;60.23
50852;BME280;43953;45.508;-122.806;2023-03-21T01:15:56;100149.19;;;12.93;60.34
50852;BME280;43953;45.508;-122.806;2023-03-21T01:16:28;100156.22;;;12.94;60.23
50852;BME280;43953;45.508;-122.806;2023-03-21T01:17:00;100149.50;;;12.96;60.39
50852;BME280;43953;45.508;-122.806;2023-03-21T01:17:31;100144.94;;;12.97;59.87
50852;BME280;43953;45.508;-122.806;2023-03-21T01:18:03;100151.50;;;12.89;59.86
50852;BME280;43953;45.508;-122.806;2023-03-21T01:18:36;100150.13;;;12.87;60.04
50852;BME280;43953;45.508;-122.806;2023-03-21T01:19:11;100157.63;;;12.85;59.96
50852;BME280;43953;45.508;-122.806;2023-03-21T01:19:43;100149.53;;;12.85;60.23
50852;BME280;43953;45.508;-122.806;2023-03-21T01:20:15;100153.31;;;12.84;60.07
50852;BME280;43953;45.508;-122.806;2023-03-21T01:20:47;100149.75;;;12.83;60.00
50852;BME280;43953;45.508;-122.806;2023-03-21T01:21:19;100148.94;;;12.83;60.17
50852;BME280;43953;45.508;-122.806;2023-03-21T01:21:50;100148.34;;;12.81;60.34
50852;BME280;43953;45.508;-122.806;2023-03-21T01:22:22;100142.13;;;12.80;59.97
50852;BME280;43953;45.508;-122.806;2023-03-21T01:22:54;100151.06;;;12.81;60.28
50852;BME280;43953;45.508;-122.806;2023-03-21T01:23:28;100148.94;;;12.83;60.82
50852;BME280;43953;45.508;-122.806;2023-03-21T01:24:00;100153.88;;;12.86;60.50
50852;BME280;43953;45.508;-122.806;2023-03-21T01:24:32;100150.13;;;12.87;60.40
50852;BME280;43953;45.508;-122.806;2023-03-21T01:25:03;100152.56;;;12.88;60.30
50852;BME280;43953;45.508;-122.806;2023-03-21T01:25:35;100150.13;;;12.87;60.21
50852;BME280;43953;45.508;-122.806;2023-03-21T01:26:09;100151.16;;;12.86;60.33
50852;BME280;43953;45.508;-122.806;2023-03-21T01:26:41;100151.41;;;12.84;60.20
50852;BME280;43953;45.508;-122.806;2023-03-21T01:27:13;100156.00;;;12.84;60.24
50852;BME280;43953;45.508;-122.806;2023-03-21T01:27:44;100154.13;;;12.84;60.48
50852;BME280;43953;45.508;-122.806;2023-03-21T01:28:16;100143.06;;;12.86;60.55
50852;BME280;43953;45.508;-122.806;2023-03-21T01:28:48;100157.38;;;12.86;60.42
50852;BME280;43953;45.508;-122.806;2023-03-21T01:29:20;100151.16;;;12.86;60.22
50852;BME280;43953;45.508;-122.806;2023-03-21T01:29:52;100155.53;;;12.87;60.73
50852;BME280;43953;45.508;-122.806;2023-03-21T01:30:24;100151.75;;;12.88;60.71
50852;BME280;43953;45.508;-122.806;2023-03-21T01:30:56;100155.06;;;12.90;60.42
50852;BME280;43953;45.508;-122.806;2023-03-21T01:31:27;100155.63;;;12.92;60.42
50852;BME280;43953;45.508;-122.806;2023-03-21T01:31:59;100157.84;;;12.95;60.61
50852;BME280;43953;45.508;-122.806;2023-03-21T01:32:31;100161.72;;;12.99;60.38
50852;BME280;43953;45.508;-122.806;2023-03-21T01:33:03;100160.19;;;13.03;60.24
50852;BME280;43953;45.508;-122.806;2023-03-21T01:33:34;100156.41;;;13.04;60.33
50852;BME280;43953;45.508;-122.806;2023-03-21T01:34:06;100160.53;;;13.07;60.38
50852;BME280;43953;45.508;-122.806;2023-03-21T01:34:38;100163.81;;;13.09;59.95
50852;BME280;43953;45.508;-122.806;2023-03-21T01:35:09;100161.94;;;13.09;60.25
50852;BME280;43953;45.508;-122.806;2023-03-21T01:35:42;100158.19;;;13.10;60.03
50852;BME280;43953;45.508;-122.806;2023-03-21T01:36:19;100165.22;;;13.11;60.09
50852;BME280;43953;45.508;-122.806;2023-03-21T01:36:53;100165.81;;;13.13;59.92
50852;BME280;43953;45.508;-122.806;2023-03-21T01:37:24;100166.63;;;13.14;59.60
50852;BME280;43953;45.508;-122.806;2023-03-21T01:37:56;100168.25;;;13.15;59.59
50852;BME280;43953;45.508;-122.806;2023-03-21T01:38:28;100167.19;;;13.16;59.54
50852;BME280;43953;45.508;-122.806;2023-03-21T01:39:00;100161.56;;;13.17;59.44
50852;BME280;43953;45.508;-122.806;2023-03-21T01:39:32;100158.59;;;13.19;59.67
50852;BME280;43953;45.508;-122.806;2023-03-21T01:40:05;100169.41;;;13.19;59.35
50852;BME280;43953;45.508;-122.806;2023-03-21T01:40:38;100165.34;;;13.16;59.71
50852;BME280;43953;45.508;-122.806;2023-03-21T01:41:31;100166.38;;;13.15;59.80
50852;BME280;43953;45.508;-122.806;2023-03-21T01:42:04;100167.19;;;13.16;59.38
50852;BME280;43953;45.508;-122.806;2023-03-21T01:42:35;100168.25;;;13.15;59.67
50852;BME280;43953;45.508;-122.806;2023-03-21T01:43:54;100163.66;;;13.15;59.75
50852;BME280;43953;45.508;-122.806;2023-03-21T01:44:26;100166.16;;;13.17;59.63
50852;BME280;43953;45.508;-122.806;2023-03-21T01:45:04;100174.00;;;13.18;59.64
50852;BME280;43953;45.508;-122.806;2023-03-21T01:46:05;100171.91;;;13.20;59.97
50852;BME280;43953;45.508;-122.806;2023-03-21T01:46:39;100170.81;;;13.21;59.55
50852;BME280;43953;45.508;-122.806;2023-03-21T01:47:11;100166.00;;;13.24;59.45
50852;BME280;43953;45.508;-122.806;2023-03-21T01:47:42;100164.94;;;13.25;59.25
50852;BME280;43953;45.508;-122.806;2023-03-21T01:48:14;100165.81;;;13.25;59.15
50852;BME280;43953;45.508;-122.806;2023-03-21T01:49:19;100177.19;;;13.27;58.85
50852;BME280;43953;45.508;-122.806;2023-03-21T01:49:56;100164.75;;;13.26;59.04
50852;BME280;43953;45.508;-122.806;2023-03-21T01:50:30;100176.38;;;13.27;58.73
50852;BME280;43953;45.508;-122.806;2023-03-21T01:51:01;100175.56;;;13.26;58.98
50852;BME280;43953;45.508;-122.806;2023-03-21T01:51:37;100164.94;;;13.25;59.20
50852;BME280;43953;45.508;-122.806;2023-03-21T01:52:12;100162.22;;;13.25;59.10
50852;BME280;43953;45.508;-122.806;2023-03-21T01:52:46;100168.53;;;13.25;58.88
50852;BME280;43953;45.508;-122.806;2023-03-21T01:53:23;100168.53;;;13.25;58.71
50852;BME280;43953;45.508;-122.806;2023-03-21T01:54:00;100161.66;;;13.23;58.67
50852;BME280;43953;45.508;-122.806;2023-03-21T01:54:35;100168.38;;;13.20;58.62
50852;BME280;43953;45.508;-122.806;2023-03-21T01:55:11;100170.25;;;13.19;58.78
50852;BME280;43953;45.508;-122.806;2023-03-21T01:55:44;100171.91;;;13.20;58.43
50852;BME280;43953;45.508;-122.806;2023-03-21T01:56:27;100172.38;;;13.17;58.49
50852;BME280;43953;45.508;-122.806;2023-03-21T01:57:03;100181.56;;;13.16;58.66
50852;BME280;43953;45.508;-122.806;2023-03-21T01:57:40;100176.16;;;13.16;58.75
50852;BME280;43953;45.508;-122.806;2023-03-21T01:58:16;100170.38;;;13.13;58.71
50852;BME280;43953;45.508;-122.806;2023-03-21T01:58:51;100171.22;;;13.13;58.53
50852;BME280;43953;45.508;-122.806;2023-03-21T01:59:29;100169.56;;;13.12;58.49
50852;BME280;43953;45.508;-122.806;2023-03-21T02:00:05;100173.81;;;13.08;58.67
50852;BME280;43953;45.508;-122.806;2023-03-21T02:00:44;100169.34;;;13.02;58.57
50852;BME280;43953;45.508;-122.806;2023-03-21T02:01:17;100174.44;;;12.98;58.63
50852;BME280;43953;45.508;-122.806;2023-03-21T02:01:49;100168.66;;;12.95;58.74
50852;BME280;43953;45.508;-122.806;2023-03-21T02:02:26;100168.09;;;12.93;59.26
50852;BME280;43953;45.508;-122.806;2023-03-21T02:02:59;100170.78;;;12.93;59.22
50852;BME280;43953;45.508;-122.806;2023-03-21T02:03:32;100169.94;;;12.92;59.05
50852;BME280;43953;45.508;-122.806;2023-03-21T02:04:20;100174.53;;;12.92;59.42
50852;BME280;43953;45.508;-122.806;2023-03-21T02:05:00;100170.78;;;12.93;59.33
50852;BME280;43953;45.508;-122.806;2023-03-21T02:06:45;100176.53;;;12.96;59.37
50852;BME280;43953;45.508;-122.806;2023-03-21T02:07:33;100175.72;;;12.96;59.12
50852;BME280;43953;45.508;-122.806;2023-03-21T02:08:06;100178.66;;;12.94;59.07
50852;BME280;43953;45.508;-122.806;2023-03-21T02:08:38;100177.34;;;12.97;59.47
50852;BME280;43953;45.508;-122.806;2023-03-21T02:09:14;100175.47;;;12.97;59.04
50852;BME280;43953;45.508;-122.806;2023-03-21T02:09:49;100182.75;;;12.97;59.13
50852;BME280;43953;45.508;-122.806;2023-03-21T02:10:22;100181.59;;;12.93;59.23
50852;BME280;43953;45.508;-122.806;2023-03-21T02:10:54;100185.13;;;12.93;59.18
50852;BME280;43953;45.508;-122.806;2023-03-21T02:11:27;100182.06;;;12.90;59.30
50852;BME280;43953;45.508;-122.806;2023-03-21T02:12:01;100185.25;;;12.87;59.21
50852;BME280;43953;45.508;-122.806;2023-03-21T02:12:33;100182.78;;;12.85;59.16
50852;BME280;43953;45.508;-122.806;2023-03-21T02:13:04;100184.06;;;12.83;59.63
50852;BME280;43953;45.508;-122.806;2023-03-21T02:13:42;100185.34;;;12.80;59.86
50852;BME280;43953;45.508;-122.806;2023-03-21T02:14:16;100184.53;;;12.80;59.82
50852;BME280;43953;45.508;-122.806;2023-03-21T02:14:49;100185.34;;;12.80;59.79
50852;BME280;43953;45.508;-122.806;2023-03-21T02:15:23;100183.94;;;12.78;59.77
50852;BME280;43953;45.508;-122.806;2023-03-21T02:17:41;100189.94;;;12.68;59.73
50852;BME280;43953;45.508;-122.806;2023-03-21T02:18:37;100191.84;;;12.67;60.26
50852;BME280;43953;45.508;-122.806;2023-03-21T02:27:18;100205.81;;;12.64;59.77
50852;BME280;43953;45.508;-122.806;2023-03-21T02:29:11;100210.03;;;12.60;59.98
50852;BME280;43953;45.508;-122.806;2023-03-21T02:31:06;100210.88;;;12.61;60.05
50852;BME280;43953;45.508;-122.806;2023-03-21T02:32:55;100208.38;;;12.59;60.03
50852;BME280;43953;45.508;-122.806;2023-03-21T02:34:06;100212.16;;;12.58;59.89
50852;BME280;43953;45.508;-122.806;2023-03-21T02:37:31;100207.56;;;12.59;59.67
50852;BME280;43953;45.508;-122.806;2023-03-21T02:39:36;100215.53;;;12.53;59.93
50852;BME280;43953;45.508;-122.806;2023-03-21T02:40:22;100216.59;;;12.52;60.41
50852;BME280;43953;45.508;-122.806;2023-03-21T02:43:05;100214.72;;;12.41;60.49
50852;BME280;43953;45.508;-122.806;2023-03-21T02:43:43;100216.59;;;12.41;60.47
50852;BME280;43953;45.508;-122.806;2023-03-21T02:45:18;100225.63;;;12.35;60.12
50852;BME280;43953;45.508;-122.806;2023-03-21T02:45:54;100222.31;;;12.33;60.12
50852;BME280;43953;45.508;-122.806;2023-03-21T02:46:31;100220.91;;;12.30;60.52
50852;BME280;43953;45.508;-122.806;2023-03-21T02:48:05;100215.75;;;12.28;60.45
50852;BME280;43953;45.508;-122.806;2023-03-21T02:48:14;100221.16;;;12.28;60.26
50852;BME280;43953;45.508;-122.806;2023-03-21T02:48:58;100224.47;;;12.31;60.31
50852;BME280;43953;45.508;-122.806;2023-03-21T02:51:15;100224.31;;;12.25;60.28
50852;BME280;43953;45.508;-122.806;2023-03-21T02:51:49;100222.66;;;12.24;60.75
50852;BME280;43953;45.508;-122.806;2023-03-21T02:52:30;100241.81;;;12.23;60.74
50852;BME280;43953;45.508;-122.806;2023-03-21T02:53:06;100222.56;;;12.19;60.91
50852;BME280;43953;45.508;-122.806;2023-03-21T02:53:42;100231.69;;;12.18;60.90
50852;BME280;43953;45.508;-122.806;2023-03-21T02:54:18;100233.81;;;12.16;60.78
50852;BME280;43953;45.508;-122.806;2023-03-21T02:54:54;100232.16;;;12.15;60.97
50852;BME280;43953;45.508;-122.806;2023-03-21T02:55:29;100232.16;;;12.15;60.90
50852;BME280;43953;45.508;-122.806;2023-03-21T02:56:03;100230.28;;;12.16;60.89
50852;BME280;43953;45.508;-122.806;2023-03-21T02:56:35;100237.31;;;12.17;61.04
50852;BME280;43953;45.508;-122.806;2023-03-21T02:57:07;100225.25;;;12.19;61.07
50852;BME280;43953;45.508;-122.806;2023-03-21T02:57:43;100231.94;;;12.17;60.59
50852;BME280;43953;45.508;-122.806;2023-03-21T02:58:22;100240.63;;;12.19;61.17
50852;BME280;43953;45.508;-122.806;2023-03-21T02:58:54;100236.03;;;12.19;60.71
50852;BME280;43953;45.508;-122.806;2023-03-21T02:59:26;100238.16;;;12.17;60.78
50852;BME280;43953;45.508;-122.806;2023-03-21T03:00:00;100235.69;;;12.16;60.78
50852;BME280;43953;45.508;-122.806;2023-03-21T03:00:38;100239.44;;;12.15;61.05
50852;BME280;43953;45.508;-122.806;2023-03-21T03:01:10;100234.28;;;12.13;60.72
50852;BME280;43953;45.508;-122.806;2023-03-21T03:01:42;100244.59;;;12.16;61.15
50852;BME280;43953;45.508;-122.806;2023-03-21T03:02:15;100244.34;;;12.18;60.80
50852;BME280;43953;45.508;-122.806;2023-03-21T03:02:48;100244.59;;;12.16;60.86
50852;BME280;43953;45.508;-122.806;2023-03-21T03:03:23;100236.50;;;12.16;61.04
50852;BME280;43953;45.508;-122.806;2023-03-21T03:03:55;100236.50;;;12.16;60.96
50852;BME280;43953;45.508;-122.806;2023-03-21T03:04:27;100238.41;;;12.16;60.77
50852;BME280;43953;45.508;-122.806;2023-03-21T03:04:59;100242.13;;;12.15;60.88
50852;BME280;43953;45.508;-122.806;2023-03-21T03:05:35;100245.63;;;12.15;60.81
50852;BME280;43953;45.508;-122.806;2023-03-21T03:06:39;100243.19;;;12.14;61.05
50852;BME280;43953;45.508;-122.806;2023-03-21T03:07:25;100246.09;;;12.12;61.21
50852;BME280;43953;45.508;-122.806;2023-03-21T03:09:13;100248.22;;;12.10;60.95
50852;BME280;43953;45.508;-122.806;2023-03-21T03:11:31;100255.44;;;11.98;61.27
50852;BME280;43953;45.508;-122.806;2023-03-21T03:12:20;100260.84;;;11.98;61.71
50852;BME280;43953;45.508;-122.806;2023-03-21T03:15:34;100261.59;;;12.05;60.88
50852;BME280;43953;45.508;-122.806;2023-03-21T03:17:17;100258.06;;;12.04;61.72
50852;BME280;43953;45.508;-122.806;2023-03-21T03:18:18;100254.75;;;12.02;61.71
50852;BME280;43953;45.508;-122.806;2023-03-21T03:18:56;100257.72;;;12.01;61.33
50852;BME280;43953;45.508;-122.806;2023-03-21T03:19:35;100256.50;;;11.97;61.55
50852;BME280;43953;45.508;-122.806;2023-03-21T03:22:03;100259.66;;;11.94;61.93
50852;BME280;43953;45.508;-122.806;2023-03-21T03:22:44;100263.63;;;11.91;61.56
50852;BME280;43953;45.508;-122.806;2023-03-21T03:23:29;100268.91;;;11.86;61.58
50852;BME280;43953;45.508;-122.806;2023-03-21T03:25:06;100264.75;;;11.83;62.21
50852;BME280;43953;45.508;-122.806;2023-03-21T03:25:34;100257.94;;;11.81;62.23
50852;BME280;43953;45.508;-122.806;2023-03-21T03:26:24;100261.56;;;11.75;61.97
50852;BME280;43953;45.508;-122.806;2023-03-21T03:27:07;100267.97;;;11.74;62.07
50852;BME280;43953;45.508;-122.806;2023-03-21T03:27:42;100262.81;;;11.72;62.17
50852;BME280;43953;45.508;-122.806;2023-03-21T03:28:18;100271.38;;;11.69;62.09
50852;BME280;43953;45.508;-122.806;2023-03-21T03:28:58;100271.13;;;11.71;62.61